createdAt,value
2018-07-16T00:00:41.545Z,1003.82
2018-07-16T00:01:41.570Z,1003.8
2018-07-16T00:02:41.596Z,1003.83
2018-07-16T00:03:41.621Z,1003.83
2018-07-16T00:04:41.648Z,1003.84
2018-07-16T00:05:41.674Z,1003.86
2018-07-16T00:06:41.702Z,1003.84
2018-07-16T00:07:41.723Z,1003.83
2018-07-16T00:08:41.746Z,1003.83
2018-07-16T00:09:41.773Z,1003.84
2018-07-16T00:10:41.799Z,1003.78
2018-07-16T00:11:41.824Z,1003.78
2018-07-16T00:12:41.849Z,1003.75
2018-07-16T00:13:41.875Z,1003.75
2018-07-16T00:14:41.981Z,1003.72
2018-07-16T00:15:41.924Z,1003.72
2018-07-16T00:16:41.950Z,1003.71
2018-07-16T00:17:41.974Z,1003.69
2018-07-16T00:18:42.003Z,1003.68
2018-07-16T00:19:48.294Z,1003.68
2018-07-16T00:20:42.050Z,1003.68
2018-07-16T00:21:42.076Z,1003.65
2018-07-16T00:22:42.100Z,1003.67
2018-07-16T00:23:42.127Z,1003.68
2018-07-16T00:24:42.151Z,1003.67
2018-07-16T00:25:42.176Z,1003.68
2018-07-16T00:26:42.200Z,1003.7
2018-07-16T00:27:42.229Z,1003.69
2018-07-16T00:28:42.253Z,1003.7
2018-07-16T00:29:42.276Z,1003.67
2018-07-16T00:30:42.300Z,1003.69
2018-07-16T00:31:42.326Z,1003.73
2018-07-16T00:32:42.352Z,1003.75
2018-07-16T00:33:42.377Z,1003.74
2018-07-16T00:34:42.404Z,1003.74
2018-07-16T00:35:42.428Z,1003.77
2018-07-16T00:36:42.451Z,1003.76
2018-07-16T00:37:42.483Z,1003.78
2018-07-16T00:38:42.504Z,1003.79
2018-07-16T00:39:42.537Z,1003.81
2018-07-16T00:40:42.551Z,1003.83
2018-07-16T00:41:42.573Z,1003.85
2018-07-16T00:42:42.603Z,1003.86
2018-07-16T00:43:42.624Z,1003.86
2018-07-16T00:44:42.652Z,1003.85
2018-07-16T00:45:42.680Z,1003.86
2018-07-16T00:46:42.699Z,1003.86
2018-07-16T00:47:42.728Z,1003.86
2018-07-16T00:48:42.749Z,1003.83
2018-07-16T00:49:42.773Z,1003.83
2018-07-16T00:50:42.802Z,1003.84
2018-07-16T00:51:42.822Z,1003.79
2018-07-16T00:52:42.847Z,1003.82
2018-07-16T00:53:42.871Z,1003.8
2018-07-16T00:54:42.902Z,1003.79
2018-07-16T00:55:42.978Z,1003.75
2018-07-16T00:56:42.947Z,1003.74
2018-07-16T00:57:42.971Z,1003.72
2018-07-16T00:58:42.996Z,1003.75
2018-07-16T00:59:43.019Z,1003.77
2018-07-16T01:00:43.045Z,1003.75
2018-07-16T01:01:43.069Z,1003.74
2018-07-16T01:02:43.094Z,1003.72
2018-07-16T01:03:43.118Z,1003.76
2018-07-16T01:04:43.144Z,1003.73
2018-07-16T01:05:43.168Z,1003.72
2018-07-16T01:06:43.191Z,1003.73
2018-07-16T01:07:43.218Z,1003.71
2018-07-16T01:08:43.241Z,1003.69
2018-07-16T01:09:43.266Z,1003.7
2018-07-16T01:10:43.290Z,1003.7
2018-07-16T01:11:43.316Z,1003.72
2018-07-16T01:12:43.339Z,1003.68
2018-07-16T01:13:43.364Z,1003.7
2018-07-16T01:14:43.388Z,1003.69
2018-07-16T01:15:43.413Z,1003.7
2018-07-16T01:16:43.436Z,1003.7
2018-07-16T01:17:43.460Z,1003.75
2018-07-16T01:18:43.486Z,1003.7
2018-07-16T01:19:43.511Z,1003.74
2018-07-16T01:20:43.534Z,1003.73
2018-07-16T01:21:43.557Z,1003.76
2018-07-16T01:22:43.582Z,1003.75
2018-07-16T01:23:43.608Z,1003.75
2018-07-16T01:24:43.632Z,1003.76
2018-07-16T01:25:43.654Z,1003.74
2018-07-16T01:26:43.680Z,1003.75
2018-07-16T01:27:43.705Z,1003.73
2018-07-16T01:28:43.726Z,1003.7
2018-07-16T01:29:43.753Z,1003.71
2018-07-16T01:30:43.776Z,1003.69
2018-07-16T01:31:43.801Z,1003.68
2018-07-16T01:32:43.824Z,1003.66
2018-07-16T01:33:43.851Z,1003.65
2018-07-16T01:34:43.875Z,1003.64
2018-07-16T01:35:43.897Z,1003.65
2018-07-16T01:36:43.921Z,1003.66
2018-07-16T01:37:43.945Z,1003.65
2018-07-16T01:38:43.969Z,1003.72
2018-07-16T01:39:43.993Z,1003.72
2018-07-16T01:40:44.018Z,1003.69
2018-07-16T01:41:44.046Z,1003.68
2018-07-16T01:42:44.078Z,1003.68
2018-07-16T01:43:44.091Z,1003.65
2018-07-16T01:44:44.114Z,1003.64
2018-07-16T01:45:44.137Z,1003.61
2018-07-16T01:46:44.162Z,1003.58
2018-07-16T01:47:44.185Z,1003.54
2018-07-16T01:48:44.209Z,1003.6
2018-07-16T01:49:44.234Z,1003.6
2018-07-16T01:50:44.257Z,1003.57
2018-07-16T01:51:44.285Z,1003.55
2018-07-16T01:52:44.305Z,1003.59
2018-07-16T01:53:44.330Z,1003.58
2018-07-16T01:54:44.353Z,1003.58
2018-07-16T01:55:44.382Z,1003.6
2018-07-16T01:56:44.401Z,1003.6
2018-07-16T01:57:44.426Z,1003.63
2018-07-16T01:58:44.449Z,1003.64
2018-07-16T01:59:44.473Z,1003.64
2018-07-16T02:00:44.497Z,1003.64
2018-07-16T02:01:44.524Z,1003.62
2018-07-16T02:02:44.543Z,1003.63
2018-07-16T02:03:44.571Z,1003.58
2018-07-16T02:04:44.592Z,1003.61
2018-07-16T02:05:44.615Z,1003.59
2018-07-16T02:06:44.640Z,1003.54
2018-07-16T02:07:44.664Z,1003.58
2018-07-16T02:08:44.688Z,1003.57
2018-07-16T02:09:44.711Z,1003.55
2018-07-16T02:10:44.733Z,1003.54
2018-07-16T02:11:44.757Z,1003.57
2018-07-16T02:12:44.796Z,1003.58
2018-07-16T02:13:44.923Z,1003.56
2018-07-16T02:14:44.832Z,1003.57
2018-07-16T02:15:44.977Z,1003.58
2018-07-16T02:16:44.876Z,1003.58
2018-07-16T02:17:44.899Z,1003.62
2018-07-16T02:18:44.926Z,1003.58
2018-07-16T02:19:44.951Z,1003.63
2018-07-16T02:20:44.972Z,1003.59
2018-07-16T02:21:44.995Z,1003.61
2018-07-16T02:22:45.144Z,1003.63
2018-07-16T02:23:45.093Z,1003.62
2018-07-16T02:24:45.065Z,1003.63
2018-07-16T02:25:45.093Z,1003.62
2018-07-16T02:26:45.112Z,1003.64
2018-07-16T02:27:45.137Z,1003.63
2018-07-16T02:28:45.163Z,1003.64
2018-07-16T02:29:45.182Z,1003.6
2018-07-16T02:30:45.213Z,1003.58
2018-07-16T02:31:45.238Z,1003.58
2018-07-16T02:32:45.255Z,1003.55
2018-07-16T02:33:45.278Z,1003.58
2018-07-16T02:34:45.306Z,1003.57
2018-07-16T02:35:45.325Z,1003.57
2018-07-16T02:36:45.348Z,1003.56
2018-07-16T02:37:45.377Z,1003.55
2018-07-16T02:38:45.394Z,1003.54
2018-07-16T02:39:45.419Z,1003.55
2018-07-16T02:40:45.443Z,1003.54
2018-07-16T02:41:45.466Z,1003.51
2018-07-16T02:42:45.502Z,1003.52
2018-07-16T02:43:45.516Z,1003.48
2018-07-16T02:44:45.536Z,1003.49
2018-07-16T02:45:45.560Z,1003.5
2018-07-16T02:46:45.583Z,1003.49
2018-07-16T02:47:45.607Z,1003.5
2018-07-16T02:48:45.629Z,1003.46
2018-07-16T02:49:45.656Z,1003.47
2018-07-16T02:50:45.677Z,1003.47
2018-07-16T02:51:45.698Z,1003.46
2018-07-16T02:52:45.724Z,1003.46
2018-07-16T02:53:45.746Z,1003.45
2018-07-16T02:54:45.772Z,1003.45
2018-07-16T02:55:45.792Z,1003.44
2018-07-16T02:56:45.814Z,1003.46
2018-07-16T02:57:45.838Z,1003.4
2018-07-16T02:58:45.862Z,1003.4
2018-07-16T02:59:45.892Z,1003.34
2018-07-16T03:00:45.914Z,1003.34
2018-07-16T03:01:45.932Z,1003.35
2018-07-16T03:02:45.957Z,1003.33
2018-07-16T03:03:45.978Z,1003.32
2018-07-16T03:04:46.001Z,1003.34
2018-07-16T03:05:46.024Z,1003.33
2018-07-16T03:06:46.049Z,1003.26
2018-07-16T03:07:46.070Z,1003.34
2018-07-16T03:08:46.096Z,1003.32
2018-07-16T03:09:46.117Z,1003.34
2018-07-16T03:10:46.142Z,1003.36
2018-07-16T03:11:46.162Z,1003.37
2018-07-16T03:12:46.184Z,1003.35
2018-07-16T03:13:46.211Z,1003.36
2018-07-16T03:14:46.230Z,1003.38
2018-07-16T03:15:46.257Z,1003.39
2018-07-16T03:16:46.280Z,1003.36
2018-07-16T03:17:46.303Z,1003.38
2018-07-16T03:18:46.323Z,1003.39
2018-07-16T03:19:46.346Z,1003.33
2018-07-16T03:20:46.376Z,1003.36
2018-07-16T03:21:46.395Z,1003.39
2018-07-16T03:22:46.416Z,1003.42
2018-07-16T03:23:46.439Z,1003.41
2018-07-16T03:24:46.463Z,1003.42
2018-07-16T03:25:46.485Z,1003.42
2018-07-16T03:26:46.507Z,1003.42
2018-07-16T03:27:46.531Z,1003.4
2018-07-16T03:28:46.556Z,1003.41
2018-07-16T03:29:46.581Z,1003.4
2018-07-16T03:30:46.599Z,1003.4
2018-07-16T03:31:46.623Z,1003.42
2018-07-16T03:32:46.646Z,1003.41
2018-07-16T03:33:46.714Z,1003.4
2018-07-16T03:34:46.691Z,1003.4
2018-07-16T03:35:46.715Z,1003.39
2018-07-16T03:36:46.736Z,1003.42
2018-07-16T03:37:46.760Z,1003.42
2018-07-16T03:38:46.784Z,1003.4
2018-07-16T03:39:46.808Z,1003.44
2018-07-16T03:40:46.831Z,1003.44
2018-07-16T03:41:46.850Z,1003.41
2018-07-16T03:42:46.873Z,1003.42
2018-07-16T03:43:46.898Z,1003.44
2018-07-16T03:44:46.919Z,1003.41
2018-07-16T03:45:46.943Z,1003.45
2018-07-16T03:46:46.966Z,1003.42
2018-07-16T03:47:46.986Z,1003.48
2018-07-16T03:48:47.011Z,1003.54
2018-07-16T03:49:47.033Z,1003.52
2018-07-16T03:50:47.058Z,1003.56
2018-07-16T03:51:47.078Z,1003.6
2018-07-16T03:52:47.101Z,1003.64
2018-07-16T03:53:47.129Z,1003.6
2018-07-16T03:54:47.147Z,1003.62
2018-07-16T03:55:47.173Z,1003.61
2018-07-16T03:56:47.248Z,1003.66
2018-07-16T03:57:47.214Z,1003.63
2018-07-16T03:58:47.237Z,1003.64
2018-07-16T03:59:47.259Z,1003.61
2018-07-16T04:00:47.283Z,1003.6
2018-07-16T04:01:47.306Z,1003.64
2018-07-16T04:02:47.328Z,1003.67
2018-07-16T04:03:47.355Z,1003.62
2018-07-16T04:04:47.373Z,1003.63
2018-07-16T04:05:47.397Z,1003.62
2018-07-16T04:06:47.419Z,1003.66
2018-07-16T04:07:47.444Z,1003.64
2018-07-16T04:08:47.466Z,1003.63
2018-07-16T04:09:47.488Z,1003.59
2018-07-16T04:10:47.510Z,1003.55
2018-07-16T04:11:47.532Z,1003.56
2018-07-16T04:12:47.556Z,1003.61
2018-07-16T04:13:47.577Z,1003.56
2018-07-16T04:14:47.601Z,1003.55
2018-07-16T04:15:47.625Z,1003.58
2018-07-16T04:16:47.650Z,1003.57
2018-07-16T04:17:47.672Z,1003.57
2018-07-16T04:18:47.689Z,1003.58
2018-07-16T04:19:47.713Z,1003.56
2018-07-16T04:20:47.736Z,1003.58
2018-07-16T04:21:47.761Z,1003.57
2018-07-16T04:22:47.782Z,1003.54
2018-07-16T04:23:47.803Z,1003.53
2018-07-16T04:24:47.828Z,1003.54
2018-07-16T04:25:47.850Z,1003.52
2018-07-16T04:26:47.871Z,1003.53
2018-07-16T04:27:47.893Z,1003.52
2018-07-16T04:28:47.915Z,1003.53
2018-07-16T04:29:47.938Z,1003.54
2018-07-16T04:30:48.038Z,1003.5
2018-07-16T04:31:47.985Z,1003.49
2018-07-16T04:32:48.006Z,1003.51
2018-07-16T04:33:48.033Z,1003.49
2018-07-16T04:34:48.051Z,1003.44
2018-07-16T04:35:48.073Z,1003.45
2018-07-16T04:36:48.096Z,1003.48
2018-07-16T04:37:48.119Z,1003.5
2018-07-16T04:38:48.139Z,1003.51
2018-07-16T04:39:48.217Z,1003.51
2018-07-16T04:40:48.187Z,1003.52
2018-07-16T04:41:48.208Z,1003.49
2018-07-16T04:42:48.230Z,1003.48
2018-07-16T04:43:48.253Z,1003.42
2018-07-16T04:44:48.276Z,1003.43
2018-07-16T04:45:48.302Z,1003.43
2018-07-16T04:46:48.320Z,1003.4
2018-07-16T04:47:48.343Z,1003.4
2018-07-16T04:48:48.364Z,1003.39
2018-07-16T04:49:48.386Z,1003.41
2018-07-16T04:50:48.410Z,1003.44
2018-07-16T04:51:48.431Z,1003.4
2018-07-16T04:52:48.454Z,1003.42
2018-07-16T04:53:48.476Z,1003.42
2018-07-16T04:54:48.498Z,1003.34
2018-07-16T04:55:48.521Z,1003.37
2018-07-16T04:56:48.555Z,1003.34
2018-07-16T04:57:48.569Z,1003.37
2018-07-16T04:58:48.588Z,1003.37
2018-07-16T04:59:48.613Z,1003.33
2018-07-16T05:00:48.638Z,1003.35
2018-07-16T05:01:48.655Z,1003.38
2018-07-16T05:02:48.678Z,1003.38
2018-07-16T05:03:48.704Z,1003.39
2018-07-16T05:04:48.723Z,1003.36
2018-07-16T05:05:48.746Z,1003.34
2018-07-16T05:06:48.768Z,1003.34
2018-07-16T05:07:48.811Z,1003.3
2018-07-16T05:08:48.811Z,1003.34
2018-07-16T05:09:48.834Z,1003.33
2018-07-16T05:10:48.866Z,1003.37
2018-07-16T05:11:48.881Z,1003.34
2018-07-16T05:12:48.903Z,1003.35
2018-07-16T05:13:48.925Z,1003.34
2018-07-16T05:14:48.947Z,1003.35
2018-07-16T05:15:48.970Z,1003.32
2018-07-16T05:16:48.991Z,1003.31
2018-07-16T05:17:49.013Z,1003.3
2018-07-16T05:18:49.036Z,1003.29
2018-07-16T05:19:49.059Z,1003.28
2018-07-16T05:20:49.088Z,1003.26
2018-07-16T05:21:49.103Z,1003.26
2018-07-16T05:22:49.126Z,1003.25
2018-07-16T05:23:49.147Z,1003.29
2018-07-16T05:24:49.175Z,1003.25
2018-07-16T05:25:49.193Z,1003.27
2018-07-16T05:26:49.215Z,1003.27
2018-07-16T05:27:49.237Z,1003.32
2018-07-16T05:28:49.260Z,1003.32
2018-07-16T05:29:49.282Z,1003.29
2018-07-16T05:30:49.305Z,1003.32
2018-07-16T05:31:49.471Z,1003.3
2018-07-16T05:32:49.423Z,1003.33
2018-07-16T05:33:49.371Z,1003.33
2018-07-16T05:34:49.395Z,1003.35
2018-07-16T05:35:49.416Z,1003.36
2018-07-16T05:36:49.440Z,1003.35
2018-07-16T05:37:49.462Z,1003.35
2018-07-16T05:38:49.483Z,1003.33
2018-07-16T05:39:49.509Z,1003.34
2018-07-16T05:40:49.529Z,1003.33
2018-07-16T05:41:49.587Z,1003.32
2018-07-16T05:42:49.578Z,1003.29
2018-07-16T05:43:49.596Z,1003.26
2018-07-16T05:44:49.619Z,1003.33
2018-07-16T05:45:49.641Z,1003.29
2018-07-16T05:46:49.663Z,1003.31
2018-07-16T05:47:49.688Z,1003.32
2018-07-16T05:48:49.709Z,1003.28
2018-07-16T05:49:49.730Z,1003.31
2018-07-16T05:50:49.755Z,1003.3
2018-07-16T05:51:49.774Z,1003.3
2018-07-16T05:52:49.798Z,1003.3
2018-07-16T05:53:49.824Z,1003.33
2018-07-16T05:54:49.844Z,1003.33
2018-07-16T05:55:49.864Z,1003.32
2018-07-16T05:56:49.902Z,1003.29
2018-07-16T05:57:49.911Z,1003.27
2018-07-16T05:58:49.932Z,1003.31
2018-07-16T05:59:49.956Z,1003.32
2018-07-16T06:00:49.982Z,1003.26
2018-07-16T06:01:50.000Z,1003.27
2018-07-16T06:02:50.023Z,1003.23
2018-07-16T06:03:50.044Z,1003.22
2018-07-16T06:04:50.073Z,1003.23
2018-07-16T06:05:50.090Z,1003.2
2018-07-16T06:06:50.111Z,1003.22
2018-07-16T06:07:50.132Z,1003.21
2018-07-16T06:08:50.252Z,1003.23
2018-07-16T06:09:50.179Z,1003.23
2018-07-16T06:10:50.203Z,1003.19
2018-07-16T06:11:50.224Z,1003.23
2018-07-16T06:12:50.249Z,1003.22
2018-07-16T06:13:50.268Z,1003.21
2018-07-16T06:14:50.290Z,1003.2
2018-07-16T06:15:50.319Z,1003.17
2018-07-16T06:16:50.422Z,1003.18
2018-07-16T06:17:50.358Z,1003.15
2018-07-16T06:18:50.383Z,1003.15
2018-07-16T06:19:50.409Z,1003.13
2018-07-16T06:20:50.426Z,1003.17
2018-07-16T06:21:50.447Z,1003.13
2018-07-16T06:22:50.470Z,1003.13
2018-07-16T06:23:50.497Z,1003.09
2018-07-16T06:24:50.516Z,1003.11
2018-07-16T06:25:50.539Z,1003.07
2018-07-16T06:26:50.564Z,1003.08
2018-07-16T06:27:50.583Z,1003.12
2018-07-16T06:28:50.606Z,1003.12
2018-07-16T06:29:50.629Z,1003.09
2018-07-16T06:30:50.651Z,1003.11
2018-07-16T06:31:50.703Z,1003.09
2018-07-16T06:32:50.774Z,1003.09
2018-07-16T06:33:50.824Z,1003.09
2018-07-16T06:34:50.743Z,1003.11
2018-07-16T06:35:50.765Z,1003.07
2018-07-16T06:36:50.787Z,1003.1
2018-07-16T06:37:50.810Z,1003.1
2018-07-16T06:38:50.836Z,1003.1
2018-07-16T06:39:50.886Z,1003.11
2018-07-16T06:40:51.061Z,1003.11
2018-07-16T06:41:50.903Z,1003.1
2018-07-16T06:42:50.925Z,1003.07
2018-07-16T06:43:50.944Z,1003.11
2018-07-16T06:44:50.969Z,1003.07
2018-07-16T06:45:50.990Z,1003.06
2018-07-16T06:46:51.014Z,1003.08
2018-07-16T06:47:51.100Z,1003.04
2018-07-16T06:48:51.060Z,1002.99
2018-07-16T06:49:51.081Z,1003.01
2018-07-16T06:50:51.104Z,1003.05
2018-07-16T06:51:51.128Z,1003.03
2018-07-16T06:52:51.156Z,1003.06
2018-07-16T06:53:51.185Z,1003.06
2018-07-16T06:54:51.196Z,1003.05
2018-07-16T06:55:51.221Z,1003.06
2018-07-16T06:56:51.242Z,1003.02
2018-07-16T06:57:51.264Z,1003.07
2018-07-16T06:58:51.287Z,1003.02
2018-07-16T06:59:51.311Z,1003.07
2018-07-16T07:00:51.333Z,1003.07
2018-07-16T07:01:51.456Z,1003.07
2018-07-16T07:02:51.384Z,1003.07
2018-07-16T07:03:51.401Z,1003.1
2018-07-16T07:04:51.423Z,1003.07
2018-07-16T07:05:51.447Z,1003.12
2018-07-16T07:06:51.470Z,1003.12
2018-07-16T07:07:51.495Z,1003.11
2018-07-16T07:08:51.522Z,1003.1
2018-07-16T07:09:51.539Z,1003.1
2018-07-16T07:10:51.562Z,1003.09
2018-07-16T07:11:51.588Z,1003.1
2018-07-16T07:12:51.608Z,1003.1
2018-07-16T07:13:51.631Z,1003.1
2018-07-16T07:14:51.653Z,1003.06
2018-07-16T07:15:51.678Z,1003.05
2018-07-16T07:16:51.702Z,1002.99
2018-07-16T07:17:51.725Z,1003.02
2018-07-16T07:18:51.754Z,1003.02
2018-07-16T07:19:51.769Z,1003.05
2018-07-16T07:20:51.795Z,1003.02
2018-07-16T07:21:51.816Z,1003.04
2018-07-16T07:22:51.840Z,1003.04
2018-07-16T07:23:51.862Z,1003.03
2018-07-16T07:24:51.886Z,1003
2018-07-16T07:25:51.912Z,1002.99
2018-07-16T07:26:51.937Z,1003
2018-07-16T07:27:51.975Z,1003.04
2018-07-16T07:28:51.980Z,1003
2018-07-16T07:29:52.006Z,1002.95
2018-07-16T07:30:52.027Z,1002.93
2018-07-16T07:31:52.050Z,1002.94
2018-07-16T07:32:52.072Z,1002.94
2018-07-16T07:33:52.097Z,1002.94
2018-07-16T07:34:52.123Z,1002.89
2018-07-16T07:35:52.158Z,1002.92
2018-07-16T07:36:52.168Z,1002.92
2018-07-16T07:37:52.190Z,1002.87
2018-07-16T07:38:52.217Z,1002.91
2018-07-16T07:39:52.241Z,1002.87
2018-07-16T07:40:52.263Z,1002.87
2018-07-16T07:41:52.283Z,1002.91
2018-07-16T07:42:52.307Z,1002.93
2018-07-16T07:43:52.333Z,1002.9
2018-07-16T07:44:52.354Z,1002.94
2018-07-16T07:45:52.378Z,1002.96
2018-07-16T07:46:52.402Z,1002.96
2018-07-16T07:47:52.426Z,1002.94
2018-07-16T07:48:52.448Z,1002.92
2018-07-16T07:49:52.477Z,1002.92
2018-07-16T07:50:52.496Z,1002.94
2018-07-16T07:51:52.520Z,1002.92
2018-07-16T07:52:52.545Z,1002.88
2018-07-16T07:53:52.568Z,1002.92
2018-07-16T07:54:53.118Z,1002.92
2018-07-16T07:55:52.617Z,1002.95
2018-07-16T07:56:52.647Z,1002.93
2018-07-16T07:57:52.664Z,1002.95
2018-07-16T07:58:52.693Z,1002.95
2018-07-16T07:59:52.713Z,1002.94
2018-07-16T08:00:52.736Z,1002.95
2018-07-16T08:01:52.760Z,1002.95
2018-07-16T08:02:52.788Z,1002.89
2018-07-16T08:03:52.808Z,1002.9
2018-07-16T08:04:52.833Z,1002.94
2018-07-16T08:05:52.858Z,1002.89
2018-07-16T08:06:52.883Z,1002.87
2018-07-16T08:07:52.906Z,1002.88
2018-07-16T08:08:52.932Z,1002.91
2018-07-16T08:09:52.956Z,1002.9
2018-07-16T08:10:52.979Z,1002.91
2018-07-16T08:11:53.004Z,1002.9
2018-07-16T08:12:53.028Z,1002.9
2018-07-16T08:13:53.071Z,1002.9
2018-07-16T08:14:53.094Z,1002.85
2018-07-16T08:15:53.105Z,1002.89
2018-07-16T08:16:53.127Z,1002.89
2018-07-16T08:17:53.151Z,1002.87
2018-07-16T08:18:53.176Z,1002.87
2018-07-16T08:19:53.206Z,1002.87
2018-07-16T08:20:53.248Z,1002.82
2018-07-16T08:21:53.249Z,1002.84
2018-07-16T08:22:53.275Z,1002.81
2018-07-16T08:23:53.302Z,1002.83
2018-07-16T08:24:53.324Z,1002.8
2018-07-16T08:25:53.350Z,1002.8
2018-07-16T08:26:53.379Z,1002.81
2018-07-16T08:27:53.500Z,1002.83
2018-07-16T08:28:53.425Z,1002.81
2018-07-16T08:29:53.449Z,1002.79
2018-07-16T08:30:53.478Z,1002.79
2018-07-16T08:31:53.501Z,1002.8
2018-07-16T08:32:53.524Z,1002.78
2018-07-16T08:33:53.551Z,1002.8
2018-07-16T08:34:53.575Z,1002.81
2018-07-16T08:35:53.602Z,1002.8
2018-07-16T08:36:53.625Z,1002.83
2018-07-16T08:37:53.654Z,1002.8
2018-07-16T08:38:53.690Z,1002.79
2018-07-16T08:39:53.706Z,1002.74
2018-07-16T08:40:53.729Z,1002.76
2018-07-16T08:41:53.755Z,1002.78
2018-07-16T08:42:53.781Z,1002.81
2018-07-16T08:43:53.806Z,1002.78
2018-07-16T08:44:53.832Z,1002.76
2018-07-16T08:45:53.858Z,1002.78
2018-07-16T08:46:53.894Z,1002.8
2018-07-16T08:47:53.910Z,1002.82
2018-07-16T08:48:53.939Z,1002.85
2018-07-16T08:49:53.962Z,1002.87
2018-07-16T08:50:53.989Z,1002.85
2018-07-16T08:51:54.017Z,1002.82
2018-07-16T08:52:54.076Z,1002.84
2018-07-16T08:53:54.067Z,1002.83
2018-07-16T08:54:54.094Z,1002.82
2018-07-16T08:55:54.119Z,1002.83
2018-07-16T08:56:54.145Z,1002.85
2018-07-16T08:57:54.173Z,1002.82
2018-07-16T08:58:54.198Z,1002.8
2018-07-16T08:59:54.226Z,1002.82
2018-07-16T09:00:54.252Z,1002.83
2018-07-16T09:01:54.282Z,1002.83
2018-07-16T09:02:54.308Z,1002.83
2018-07-16T09:03:54.334Z,1002.83
2018-07-16T09:04:54.360Z,1002.85
2018-07-16T09:05:54.387Z,1002.83
2018-07-16T09:06:54.413Z,1002.85
2018-07-16T09:07:54.439Z,1002.87
2018-07-16T09:08:54.466Z,1002.86
2018-07-16T09:09:54.493Z,1002.85
2018-07-16T09:10:54.635Z,1002.86
2018-07-16T09:11:54.547Z,1002.88
2018-07-16T09:12:54.574Z,1002.86
2018-07-16T09:13:54.613Z,1002.83
2018-07-16T09:14:54.629Z,1002.83
2018-07-16T09:15:54.657Z,1002.87
2018-07-16T09:16:54.735Z,1002.86
2018-07-16T09:17:54.711Z,1002.89
2018-07-16T09:18:54.738Z,1002.91
2018-07-16T09:19:54.766Z,1002.93
2018-07-16T09:20:54.797Z,1002.94
2018-07-16T09:21:54.821Z,1002.94
2018-07-16T09:22:54.852Z,1002.95
2018-07-16T09:23:54.877Z,1002.97
2018-07-16T09:24:54.903Z,1002.95
2018-07-16T09:25:54.936Z,1002.9
2018-07-16T09:26:54.962Z,1002.88
2018-07-16T09:27:54.992Z,1002.9
2018-07-16T09:28:55.016Z,1002.88
2018-07-16T09:29:55.046Z,1002.9
2018-07-16T09:30:55.074Z,1002.85
2018-07-16T09:31:55.100Z,1002.85
2018-07-16T09:32:55.131Z,1002.85
2018-07-16T09:33:55.157Z,1002.85
2018-07-16T09:34:55.200Z,1002.87
2018-07-16T09:35:55.212Z,1002.85
2018-07-16T09:36:55.241Z,1002.87
2018-07-16T09:37:55.270Z,1002.86
2018-07-16T09:38:55.373Z,1002.91
2018-07-16T09:39:55.326Z,1002.9
2018-07-16T09:40:55.356Z,1002.91
2018-07-16T09:41:55.384Z,1002.86
2018-07-16T09:42:55.412Z,1002.93
2018-07-16T09:43:55.443Z,1002.9
2018-07-16T09:44:55.476Z,1002.91
2018-07-16T09:45:55.498Z,1002.86
2018-07-16T09:46:55.526Z,1002.85
2018-07-16T09:47:55.558Z,1002.81
2018-07-16T09:48:55.584Z,1002.83
2018-07-16T09:49:55.614Z,1002.85
2018-07-16T09:50:55.642Z,1002.83
2018-07-16T09:51:55.672Z,1002.82
2018-07-16T09:52:55.708Z,1002.78
2018-07-16T09:53:55.729Z,1002.76
2018-07-16T09:54:55.759Z,1002.72
2018-07-16T09:55:55.787Z,1002.75
2018-07-16T09:56:55.816Z,1002.75
2018-07-16T09:57:55.844Z,1002.71
2018-07-16T09:58:55.876Z,1002.71
2018-07-16T09:59:55.904Z,1002.72
2018-07-16T10:00:55.932Z,1002.69
2018-07-16T10:01:55.962Z,1002.68
2018-07-16T10:02:55.991Z,1002.69
2018-07-16T10:03:56.021Z,1002.68
2018-07-16T10:04:56.057Z,1002.67
2018-07-16T10:05:56.088Z,1002.65
2018-07-16T10:06:56.110Z,1002.65
2018-07-16T10:07:56.138Z,1002.64
2018-07-16T10:08:56.180Z,1002.7
2018-07-16T10:09:56.197Z,1002.63
2018-07-16T10:10:56.227Z,1002.61
2018-07-16T10:11:56.256Z,1002.63
2018-07-16T10:12:56.287Z,1002.6
2018-07-16T10:13:56.315Z,1002.61
2018-07-16T10:14:56.346Z,1002.59
2018-07-16T10:15:56.375Z,1002.56
2018-07-16T10:16:56.404Z,1002.57
2018-07-16T10:17:56.438Z,1002.54
2018-07-16T10:18:56.464Z,1002.52
2018-07-16T10:19:56.495Z,1002.53
2018-07-16T10:20:56.525Z,1002.56
2018-07-16T10:21:56.554Z,1002.53
2018-07-16T10:22:56.583Z,1002.55
2018-07-16T10:23:56.613Z,1002.53
2018-07-16T10:24:56.643Z,1002.55
2018-07-16T10:25:56.721Z,1002.5
2018-07-16T10:26:56.709Z,1002.52
2018-07-16T10:27:56.735Z,1002.5
2018-07-16T10:28:56.766Z,1002.53
2018-07-16T10:29:56.794Z,1002.46
2018-07-16T10:30:56.826Z,1002.47
2018-07-16T10:31:56.856Z,1002.5
2018-07-16T10:32:56.886Z,1002.48
2018-07-16T10:33:57.022Z,1002.48
2018-07-16T10:34:56.948Z,1002.43
2018-07-16T10:35:56.978Z,1002.48
2018-07-16T10:36:57.012Z,1002.48
2018-07-16T10:37:57.042Z,1002.49
2018-07-16T10:38:57.070Z,1002.43
2018-07-16T10:39:57.100Z,1002.43
2018-07-16T10:40:57.129Z,1002.47
2018-07-16T10:41:57.162Z,1002.45
2018-07-16T10:42:57.192Z,1002.38
2018-07-16T10:43:57.226Z,1002.38
2018-07-16T10:44:57.253Z,1002.34
2018-07-16T10:45:57.284Z,1002.35
2018-07-16T10:46:57.316Z,1002.36
2018-07-16T10:47:57.346Z,1002.42
2018-07-16T10:48:57.377Z,1002.35
2018-07-16T10:49:57.407Z,1002.34
2018-07-16T10:50:57.445Z,1002.35
2018-07-16T10:51:57.470Z,1002.34
2018-07-16T10:52:57.503Z,1002.33
2018-07-16T10:53:57.533Z,1002.31
2018-07-16T10:54:57.564Z,1002.31
2018-07-16T10:55:57.594Z,1002.26
2018-07-16T10:56:57.629Z,1002.24
2018-07-16T10:57:57.658Z,1002.27
2018-07-16T10:58:57.694Z,1002.29
2018-07-16T10:59:57.720Z,1002.28
2018-07-16T11:00:57.754Z,1002.24
2018-07-16T11:01:57.802Z,1002.27
2018-07-16T11:02:57.848Z,1002.24
2018-07-16T11:03:57.846Z,1002.18
2018-07-16T11:04:57.878Z,1002.2
2018-07-16T11:05:57.910Z,1002.2
2018-07-16T11:06:57.941Z,1002.22
2018-07-16T11:07:57.973Z,1002.18
2018-07-16T11:08:58.006Z,1002.16
2018-07-16T11:09:58.036Z,1002.19
2018-07-16T11:10:58.071Z,1002.18
2018-07-16T11:11:58.102Z,1002.15
2018-07-16T11:12:58.133Z,1002.15
2018-07-16T11:13:58.165Z,1002.12
2018-07-16T11:14:58.203Z,1002.08
2018-07-16T11:15:58.230Z,1002.05
2018-07-16T11:16:58.263Z,1002.09
2018-07-16T11:17:58.294Z,1002.07
2018-07-16T11:18:58.326Z,1002.03
2018-07-16T11:19:58.360Z,1002.01
2018-07-16T11:20:58.509Z,1002
2018-07-16T11:21:58.423Z,1002.02
2018-07-16T11:22:58.455Z,1002.01
2018-07-16T11:23:58.490Z,1002
2018-07-16T11:24:58.521Z,1001.99
2018-07-16T11:25:58.553Z,1001.99
2018-07-16T11:26:58.661Z,1001.96
2018-07-16T11:27:58.620Z,1002
2018-07-16T11:28:58.651Z,1002.02
2018-07-16T11:29:58.702Z,1002.02
2018-07-16T11:30:58.733Z,1001.99
2018-07-16T11:31:58.751Z,1002.01
2018-07-16T11:32:58.782Z,1001.95
2018-07-16T11:33:58.815Z,1001.95
2018-07-16T11:34:58.852Z,1001.88
2018-07-16T11:35:58.882Z,1001.89
2018-07-16T11:36:58.914Z,1001.91
2018-07-16T11:37:58.954Z,1001.92
2018-07-16T11:38:58.981Z,1001.85
2018-07-16T11:39:59.012Z,1001.89
2018-07-16T11:40:59.049Z,1001.89
2018-07-16T11:41:59.078Z,1001.88
2018-07-16T11:42:59.111Z,1001.85
2018-07-16T11:43:59.144Z,1001.84
2018-07-16T11:44:59.179Z,1001.86
2018-07-16T11:45:59.218Z,1001.81
2018-07-16T11:46:59.245Z,1001.86
2018-07-16T11:47:59.276Z,1001.85
2018-07-16T11:48:59.311Z,1001.81
2018-07-16T11:49:59.344Z,1001.82
2018-07-16T11:50:59.377Z,1001.8
2018-07-16T11:51:59.415Z,1001.78
2018-07-16T11:52:59.443Z,1001.77
2018-07-16T11:53:59.476Z,1001.72
2018-07-16T11:54:59.510Z,1001.72
2018-07-16T11:55:59.546Z,1001.68
2018-07-16T11:56:59.577Z,1001.69
2018-07-16T11:57:59.614Z,1001.7
2018-07-16T11:58:59.685Z,1001.67
2018-07-16T11:59:59.677Z,1001.65
2018-07-16T12:00:59.710Z,1001.62
2018-07-16T12:01:59.811Z,1001.63
2018-07-16T12:02:59.783Z,1001.59
2018-07-16T12:03:59.812Z,1001.66
2018-07-16T12:04:59.851Z,1001.63
2018-07-16T12:05:59.881Z,1001.6
2018-07-16T12:06:59.914Z,1001.57
2018-07-16T12:07:59.949Z,1001.6
2018-07-16T12:08:59.980Z,1001.54